createdAt,value
2022-12-28T00:01:32.332Z,2.10
2022-12-28T00:04:01.398Z,2.00
2022-12-28T00:06:28.955Z,2.00
2022-12-28T00:08:57.034Z,2.10
2022-12-28T00:11:28.102Z,2.10
2022-12-28T00:13:58.700Z,1.90
2022-12-28T00:16:31.593Z,1.80
2022-12-28T00:19:00.863Z,1.80
2022-12-28T00:21:28.344Z,1.80
2022-12-28T00:23:58.262Z,1.60
2022-12-28T00:26:26.890Z,1.60
2022-12-28T00:28:59.773Z,1.60
2022-12-28T00:31:30.764Z,1.60
2022-12-28T00:33:57.887Z,1.60
2022-12-28T00:36:25.257Z,1.60
2022-12-28T00:44:06.541Z,1.60
2022-12-28T00:46:33.412Z,1.60
2022-12-28T00:51:27.665Z,1.60
2022-12-28T00:53:54.637Z,1.50
2022-12-28T00:56:22.800Z,1.50
2022-12-28T00:58:50.042Z,1.60
2022-12-28T01:01:22.089Z,1.60
2022-12-28T01:06:19.148Z,1.60
2022-12-28T01:08:46.335Z,1.80
2022-12-28T01:11:20.836Z,1.80
2022-12-28T01:13:48.167Z,1.80
2022-12-28T01:16:18.254Z,1.70
2022-12-28T01:18:46.887Z,1.70
2022-12-28T01:21:20.049Z,1.60
2022-12-28T01:23:48.549Z,1.70
2022-12-28T01:26:16.356Z,1.80
2022-12-28T01:31:13.564Z,1.80
2022-12-28T01:33:41.105Z,1.70
2022-12-28T01:36:09.702Z,1.70
2022-12-28T01:38:36.795Z,1.70
2022-12-28T01:41:06.672Z,1.60
2022-12-28T01:43:46.859Z,1.60
2022-12-28T01:46:17.834Z,1.60
2022-12-28T01:48:55.892Z,1.50
2022-12-28T01:51:24.132Z,1.40
2022-12-28T01:53:54.096Z,1.50
2022-12-28T01:56:22.823Z,1.50
2022-12-28T01:58:50.094Z,1.40
2022-12-28T02:01:17.609Z,1.30
2022-12-28T02:03:44.672Z,1.40
2022-12-28T02:06:13.096Z,1.30
2022-12-28T02:08:58.736Z,1.30
2022-12-28T02:13:53.786Z,1.30
2022-12-28T02:18:48.512Z,1.30
2022-12-28T02:21:30.910Z,1.30
2022-12-28T02:24:12.734Z,1.30
2022-12-28T02:27:29.481Z,1.20
2022-12-28T02:30:04.590Z,1.30
2022-12-28T02:33:04.903Z,1.30
2022-12-28T02:35:43.455Z,1.30
2022-12-28T02:38:36.901Z,1.30
2022-12-28T02:41:20.094Z,1.30
2022-12-28T02:43:48.020Z,1.30
2022-12-28T02:46:47.281Z,1.20
2022-12-28T02:49:47.006Z,1.20
2022-12-28T02:52:31.385Z,1.20
2022-12-28T02:55:39.859Z,1.10
2022-12-28T02:58:15.059Z,1.10
2022-12-28T03:01:07.938Z,1.10
2022-12-28T03:06:42.167Z,1.00
2022-12-28T03:09:19.972Z,1.10
2022-12-28T03:14:23.943Z,1.10
2022-12-28T03:17:27.025Z,1.00
2022-12-28T03:20:16.943Z,1.00
2022-12-28T03:23:04.250Z,1.00
2022-12-28T03:25:55.841Z,1.00
2022-12-28T03:28:45.703Z,1.00
2022-12-28T03:31:17.690Z,1.00
2022-12-28T03:33:50.544Z,0.90
2022-12-28T03:36:33.476Z,1.00
2022-12-28T03:41:33.607Z,1.10
2022-12-28T03:44:07.966Z,0.90
2022-12-28T03:46:44.123Z,1.00
2022-12-28T03:49:11.507Z,0.90
2022-12-28T03:51:39.570Z,1.00
2022-12-28T03:54:06.418Z,0.90
2022-12-28T04:01:27.931Z,0.80
2022-12-28T04:03:54.863Z,1.00
2022-12-28T04:08:49.021Z,0.80
2022-12-28T04:16:13.766Z,0.90
2022-12-28T04:21:10.786Z,0.90
2022-12-28T04:23:37.932Z,0.90
2022-12-28T04:26:14.337Z,0.80
2022-12-28T04:28:42.263Z,0.70
2022-12-28T04:31:12.108Z,0.90
2022-12-28T04:33:40.326Z,0.70
2022-12-28T04:36:15.726Z,0.50
2022-12-28T04:38:43.189Z,0.80
2022-12-28T04:41:11.291Z,0.70
2022-12-28T04:46:10.057Z,0.70
2022-12-28T04:48:37.170Z,0.80
2022-12-28T04:51:25.790Z,0.90
2022-12-28T04:53:53.759Z,0.90
2022-12-28T04:56:22.489Z,0.80
2022-12-28T05:01:19.273Z,0.80
2022-12-28T05:03:54.507Z,0.70
2022-12-28T05:06:24.162Z,0.60
2022-12-28T05:08:51.560Z,0.70
2022-12-28T05:11:21.407Z,0.60
2022-12-28T05:13:48.675Z,0.60
2022-12-28T05:16:18.354Z,0.60
2022-12-28T05:21:15.814Z,0.70
2022-12-28T05:26:12.952Z,0.70
2022-12-28T05:28:40.444Z,0.70
2022-12-28T05:31:10.347Z,0.70
2022-12-28T05:33:38.663Z,0.80
2022-12-28T05:36:17.364Z,0.70
2022-12-28T05:38:44.521Z,0.70
2022-12-28T05:41:23.157Z,0.60
2022-12-28T05:43:50.973Z,0.50
2022-12-28T05:46:26.784Z,0.50
2022-12-28T05:48:57.336Z,0.50
2022-12-28T05:51:27.243Z,0.40
2022-12-28T05:53:54.540Z,0.60
2022-12-28T05:56:23.689Z,0.60
2022-12-28T05:59:08.610Z,0.50
2022-12-28T06:01:39.069Z,0.50
2022-12-28T06:04:17.890Z,0.50
2022-12-28T06:06:45.935Z,0.40
2022-12-28T06:09:12.990Z,0.30
2022-12-28T06:11:40.648Z,0.40
2022-12-28T06:14:07.984Z,0.30
2022-12-28T06:16:40.935Z,0.20
2022-12-28T06:19:09.971Z,0.20
2022-12-28T06:21:39.582Z,0.30
2022-12-28T06:24:07.495Z,0.40
2022-12-28T06:26:36.283Z,0.20
2022-12-28T06:29:03.402Z,0.10
2022-12-28T06:31:33.269Z,0.10
2022-12-28T06:34:01.606Z,0.20
2022-12-28T06:36:30.853Z,0.30
2022-12-28T06:39:00.074Z,0.20
2022-12-28T06:41:27.857Z,0.10
2022-12-28T06:43:55.800Z,0.20
2022-12-28T06:46:25.025Z,0.20
2022-12-28T06:51:22.300Z,0.30
2022-12-28T06:53:51.871Z,0.40
2022-12-28T06:56:24.605Z,0.30
2022-12-28T06:58:56.883Z,0.40
2022-12-28T07:01:30.017Z,1.00
2022-12-28T07:03:58.517Z,0.80
2022-12-28T07:06:27.723Z,0.60
2022-12-28T07:09:02.909Z,0.40
2022-12-28T07:13:57.961Z,1.00
2022-12-28T07:16:26.835Z,1.20
2022-12-28T07:18:53.941Z,2.10
2022-12-28T07:21:24.251Z,1.40
2022-12-28T07:23:52.494Z,1.50
2022-12-28T07:26:25.529Z,1.70
2022-12-28T07:28:53.873Z,1.70
2022-12-28T07:31:26.405Z,2.50
2022-12-28T07:33:55.931Z,2.30
2022-12-28T07:36:24.418Z,2.60
2022-12-28T07:38:51.919Z,3.30
2022-12-28T07:41:21.366Z,2.70
2022-12-28T07:43:48.419Z,2.80
2022-12-28T07:46:21.743Z,2.40
2022-12-28T07:48:49.679Z,2.60
2022-12-28T07:51:22.435Z,3.00
2022-12-28T07:53:50.924Z,3.60
2022-12-28T07:56:18.876Z,3.60
2022-12-28T07:59:05.915Z,3.40
2022-12-28T08:01:34.914Z,3.50
2022-12-28T08:04:10.569Z,3.60
2022-12-28T08:06:40.482Z,4.10
2022-12-28T08:09:09.334Z,3.80
2022-12-28T08:11:38.628Z,3.80
2022-12-28T08:14:06.984Z,3.90
2022-12-28T08:16:39.354Z,4.30
2022-12-28T08:19:07.701Z,4.80
2022-12-28T08:21:41.251Z,4.50
2022-12-28T08:24:10.048Z,4.60
2022-12-28T08:26:38.835Z,4.00
2022-12-28T08:29:08.817Z,4.50
2022-12-28T08:31:38.162Z,5.20
2022-12-28T08:34:08.013Z,5.30
2022-12-28T08:36:35.026Z,5.80
2022-12-28T08:39:02.717Z,5.80
2022-12-28T08:41:30.954Z,5.30
2022-12-28T08:43:58.761Z,5.30
2022-12-28T08:46:28.022Z,5.90
2022-12-28T08:48:56.776Z,5.80
2022-12-28T08:51:27.138Z,5.10
2022-12-28T08:56:24.182Z,5.60
2022-12-28T08:58:51.435Z,5.70
2022-12-28T09:01:24.564Z,5.50
2022-12-28T09:03:53.936Z,5.60
2022-12-28T09:06:24.523Z,5.70
2022-12-28T09:09:08.243Z,5.80
2022-12-28T09:11:36.692Z,6.00
2022-12-28T09:14:05.139Z,6.10
2022-12-28T09:16:32.497Z,6.10
2022-12-28T09:19:01.951Z,5.80
2022-12-28T09:21:32.604Z,6.30
2022-12-28T09:23:59.609Z,5.90
2022-12-28T09:26:29.214Z,6.50
2022-12-28T09:28:58.051Z,7.10
2022-12-28T09:31:27.665Z,6.80
2022-12-28T09:36:47.737Z,6.60
2022-12-28T09:39:17.790Z,6.90
2022-12-28T09:42:12.368Z,7.10
2022-12-28T09:44:48.188Z,6.80
2022-12-28T09:47:30.090Z,7.20
2022-12-28T09:50:14.070Z,6.80
2022-12-28T09:53:13.732Z,7.20
2022-12-28T09:55:44.884Z,7.50
2022-12-28T09:58:15.657Z,7.20
2022-12-28T10:00:46.974Z,7.10
2022-12-28T10:03:24.490Z,7.00
2022-12-28T10:05:52.371Z,7.60
2022-12-28T10:08:22.321Z,7.50
2022-12-28T10:10:51.442Z,6.90
2022-12-28T10:16:18.873Z,7.50
2022-12-28T10:18:48.416Z,8.30
2022-12-28T10:21:18.717Z,8.50
2022-12-28T10:26:37.522Z,7.30
2022-12-28T10:29:04.515Z,7.00
2022-12-28T10:31:37.192Z,6.60
2022-12-28T10:34:22.710Z,7.60
2022-12-28T10:36:50.524Z,7.60
2022-12-28T10:39:29.866Z,8.00
2022-12-28T10:42:00.764Z,8.00
2022-12-28T10:47:36.021Z,6.90
2022-12-28T10:52:58.613Z,6.10
2022-12-28T10:55:31.374Z,6.50
2022-12-28T10:58:34.167Z,6.70
2022-12-28T11:01:24.123Z,6.00
2022-12-28T11:03:56.580Z,6.10
2022-12-28T11:06:29.174Z,6.00
2022-12-28T11:09:15.869Z,6.40
2022-12-28T11:11:45.150Z,6.80
2022-12-28T11:14:18.147Z,6.80
2022-12-28T11:16:45.296Z,6.70
2022-12-28T11:19:13.198Z,6.80
2022-12-28T11:21:41.873Z,6.70
2022-12-28T11:24:14.084Z,6.30
2022-12-28T11:26:48.361Z,5.70
2022-12-28T11:29:18.027Z,5.80
2022-12-28T11:31:51.142Z,5.60
2022-12-28T11:34:23.420Z,5.10
2022-12-28T11:39:26.487Z,5.00
2022-12-28T11:47:17.971Z,4.60
2022-12-28T11:49:47.373Z,4.70
2022-12-28T11:52:17.064Z,4.70
2022-12-28T11:54:55.165Z,4.50
2022-12-28T11:57:38.316Z,4.40
2022-12-28T12:00:21.915Z,4.70
2022-12-28T12:02:53.104Z,4.50
2022-12-28T12:05:38.562Z,4.40
2022-12-28T12:08:17.342Z,4.60
2022-12-28T12:10:48.625Z,4.50
2022-12-28T12:13:43.468Z,4.60
2022-12-28T12:17:06.335Z,4.50
2022-12-28T12:19:36.835Z,4.40
2022-12-28T12:22:15.066Z,4.30
2022-12-28T12:24:48.021Z,4.50
2022-12-28T12:27:20.855Z,4.50
2022-12-28T12:29:53.056Z,4.50
2022-12-28T12:32:46.324Z,4.30
2022-12-28T12:35:19.456Z,4.10
2022-12-28T12:37:49.840Z,4.10
2022-12-28T12:40:41.969Z,4.30
2022-12-28T12:45:46.069Z,4.40
2022-12-28T12:48:28.326Z,4.40
2022-12-28T12:51:16.557Z,4.60
2022-12-28T12:57:10.151Z,4.20
2022-12-28T13:00:11.106Z,4.30
2022-12-28T13:02:54.088Z,4.10
2022-12-28T13:05:24.542Z,4.00
2022-12-28T13:10:41.290Z,4.10
2022-12-28T13:13:17.842Z,4.30
2022-12-28T13:15:45.060Z,4.40
2022-12-28T13:18:44.562Z,4.40
2022-12-28T13:21:12.622Z,4.50
2022-12-28T13:23:45.044Z,4.80
2022-12-28T13:26:14.586Z,5.00
2022-12-28T13:29:02.753Z,5.10
2022-12-28T13:31:34.199Z,5.00
2022-12-28T13:34:04.954Z,5.00
2022-12-28T13:39:19.106Z,4.60
2022-12-28T13:41:53.242Z,4.60
2022-12-28T13:44:26.871Z,4.70
2022-12-28T13:47:02.837Z,4.60
2022-12-28T13:49:35.147Z,4.50
2022-12-28T13:57:14.664Z,4.30
2022-12-28T13:59:46.117Z,4.40
2022-12-28T14:02:19.957Z,4.40
2022-12-28T14:04:52.779Z,4.40
2022-12-28T14:07:23.410Z,4.30
2022-12-28T14:09:51.043Z,4.20
2022-12-28T14:12:18.442Z,4.30
2022-12-28T14:14:45.903Z,4.20
2022-12-28T14:19:40.926Z,4.10
2022-12-28T14:22:27.470Z,4.00
2022-12-28T14:25:12.282Z,4.10
2022-12-28T14:27:57.287Z,4.10
2022-12-28T14:30:52.894Z,4.20
2022-12-28T14:33:27.881Z,4.00
2022-12-28T14:36:00.140Z,3.90
2022-12-28T14:38:38.285Z,3.60
2022-12-28T14:41:05.612Z,3.50
2022-12-28T14:43:37.271Z,3.60
2022-12-28T14:46:40.339Z,3.50
2022-12-28T14:49:28.250Z,3.40
2022-12-28T14:51:56.555Z,3.40
2022-12-28T14:54:27.977Z,3.50
2022-12-28T14:59:28.835Z,3.40
2022-12-28T15:04:38.799Z,3.40
2022-12-28T15:07:10.205Z,3.50
2022-12-28T15:09:37.109Z,3.50
2022-12-28T15:12:15.180Z,3.40
2022-12-28T15:14:42.472Z,3.30
2022-12-28T15:17:10.722Z,3.50
2022-12-28T15:19:37.639Z,3.50
2022-12-28T15:22:04.997Z,3.50
2022-12-28T15:24:34.218Z,3.30
2022-12-28T15:27:02.826Z,3.20
2022-12-28T15:32:17.042Z,3.40
2022-12-28T15:34:43.969Z,3.20
2022-12-28T15:37:10.790Z,3.30
2022-12-28T15:39:37.638Z,3.30
2022-12-28T15:44:31.791Z,3.10
2022-12-28T15:49:26.613Z,3.20
2022-12-28T15:54:20.741Z,3.00
2022-12-28T15:56:53.334Z,3.00
2022-12-28T15:59:20.272Z,3.10
2022-12-28T16:04:15.434Z,3.00
2022-12-28T16:06:45.084Z,3.10
2022-12-28T16:09:14.088Z,3.20
2022-12-28T16:11:41.845Z,3.20
2022-12-28T16:14:14.277Z,3.10
2022-12-28T16:19:09.846Z,2.90
2022-12-28T16:24:04.191Z,2.90
2022-12-28T16:29:01.950Z,3.10
2022-12-28T16:31:35.407Z,3.10
2022-12-28T16:34:06.196Z,3.20
2022-12-28T16:36:33.461Z,3.20
2022-12-28T16:41:32.950Z,3.10
2022-12-28T16:44:12.400Z,3.00
2022-12-28T16:46:39.346Z,3.10
2022-12-28T16:54:00.674Z,3.00
2022-12-28T16:56:27.547Z,3.10
2022-12-28T16:58:58.503Z,3.00
2022-12-28T17:01:25.751Z,2.80
2022-12-28T17:06:23.277Z,2.80
2022-12-28T17:11:18.210Z,2.90
2022-12-28T17:13:45.094Z,2.70
2022-12-28T17:16:12.312Z,3.00
2022-12-28T17:18:39.264Z,3.00
2022-12-28T17:21:07.392Z,3.00
2022-12-28T17:28:29.877Z,3.20
2022-12-28T17:31:05.465Z,2.70
2022-12-28T17:36:07.562Z,2.70
2022-12-28T17:38:34.446Z,2.50
2022-12-28T17:41:08.205Z,2.40
2022-12-28T17:43:35.107Z,2.70
2022-12-28T17:46:02.336Z,2.60
2022-12-28T17:48:30.443Z,2.60
2022-12-28T17:50:59.144Z,2.50
2022-12-28T17:55:53.579Z,2.50
2022-12-28T18:00:52.855Z,2.50
2022-12-28T18:05:49.281Z,2.50
2022-12-28T18:08:16.762Z,2.50
2022-12-28T18:10:44.501Z,2.70
2022-12-28T18:13:12.223Z,2.40
2022-12-28T18:15:39.441Z,2.50
2022-12-28T18:18:06.970Z,2.40
2022-12-28T18:20:34.099Z,2.60
2022-12-28T18:25:28.346Z,2.40
2022-12-28T18:32:49.988Z,2.60
2022-12-28T18:37:44.224Z,2.30
2022-12-28T18:42:38.907Z,2.40
2022-12-28T18:45:06.250Z,2.50
2022-12-28T18:50:03.101Z,2.40
2022-12-28T19:07:16.290Z,2.60
2022-12-28T19:10:09.835Z,2.50
2022-12-28T19:15:07.240Z,2.40
2022-12-28T19:24:56.787Z,2.70
2022-12-28T19:27:23.608Z,2.60
2022-12-28T19:34:44.846Z,2.60
2022-12-28T19:37:11.720Z,2.70
2022-12-28T19:42:05.891Z,2.60
2022-12-28T19:44:33.011Z,2.60
2022-12-28T19:47:00.350Z,2.50
2022-12-28T19:51:56.086Z,2.70
2022-12-28T19:59:17.675Z,2.40
2022-12-28T20:01:44.710Z,2.40
2022-12-28T20:06:43.379Z,2.60
2022-12-28T20:09:11.086Z,2.50
2022-12-28T20:11:38.479Z,2.50
2022-12-28T20:16:34.280Z,2.60
2022-12-28T20:21:28.994Z,2.80
2022-12-28T20:26:25.061Z,2.50
2022-12-28T20:31:20.216Z,2.60
2022-12-28T20:33:47.317Z,2.70
2022-12-28T20:36:20.040Z,2.60
2022-12-28T20:38:48.050Z,2.90
2022-12-28T20:41:35.214Z,2.70
2022-12-28T20:44:07.562Z,2.70
2022-12-28T20:46:34.557Z,2.60
2022-12-28T20:51:28.904Z,2.60
2022-12-28T20:58:50.626Z,2.60
2022-12-28T21:01:18.171Z,2.60
2022-12-28T21:06:13.829Z,2.70
2022-12-28T21:11:07.957Z,2.60
2022-12-28T21:13:39.272Z,2.80
2022-12-28T21:16:09.843Z,2.70
2022-12-28T21:23:32.682Z,2.60
2022-12-28T21:26:04.334Z,2.70
2022-12-28T21:28:31.811Z,2.70
2022-12-28T21:31:00.089Z,2.70
2022-12-28T21:33:27.092Z,2.80
2022-12-28T21:36:05.306Z,2.80
2022-12-28T21:38:32.861Z,2.70
2022-12-28T21:41:02.223Z,2.70
2022-12-28T21:43:30.129Z,2.70
2022-12-28T21:46:05.033Z,2.60
2022-12-28T21:48:33.701Z,2.70
2022-12-28T21:51:31.389Z,2.80
2022-12-28T21:53:59.857Z,3.00
2022-12-28T21:56:26.844Z,2.90
2022-12-28T21:58:53.900Z,2.90
2022-12-28T22:01:39.652Z,2.70
2022-12-28T22:04:26.334Z,2.80
2022-12-28T22:06:53.481Z,2.90
2022-12-28T22:12:24.876Z,3.00
2022-12-28T22:17:39.175Z,2.70
2022-12-28T22:20:07.004Z,2.70
2022-12-28T22:22:33.823Z,2.80
2022-12-28T22:25:00.676Z,2.90
2022-12-28T22:27:27.464Z,3.00
2022-12-28T22:32:22.862Z,2.80
2022-12-28T22:44:38.824Z,2.60
2022-12-28T22:47:05.991Z,2.50
2022-12-28T22:52:00.227Z,2.90
2022-12-28T22:56:54.343Z,2.90
2022-12-28T22:59:21.141Z,2.70
2022-12-28T23:01:51.031Z,2.70
2022-12-28T23:04:18.183Z,2.50
2022-12-28T23:06:45.019Z,2.50
2022-12-28T23:14:29.202Z,2.60
2022-12-28T23:22:31.391Z,3.70
2022-12-28T23:25:16.743Z,2.60
2022-12-28T23:27:45.008Z,2.60
2022-12-28T23:30:17.544Z,2.80
2022-12-28T23:32:48.548Z,2.60
2022-12-28T23:35:16.571Z,2.80
2022-12-28T23:37:43.772Z,2.60
2022-12-28T23:40:13.177Z,2.60
2022-12-28T23:42:40.962Z,2.60
2022-12-28T23:45:10.435Z,2.60
2022-12-28T23:47:37.788Z,2.80
2022-12-28T23:50:05.898Z,2.60
2022-12-28T23:52:32.882Z,2.70
2022-12-28T23:59:54.350Z,2.60
